Time;durP1;ratioP1;P1;durP2;ratioP2;P2;SDS_P1;SDS_P2;PMS_P1;PMS_P2;Temp;Humidity;BMP_temperature;BMP_pressure;BME280_temperature;BME280_humidity;BME280_pressure;Samples;Min_cycle;Max_cycle;Signal;HPM_P1;HPM_P2
2021/01/19 00:01:59;;;;;;;;;;;18.00;58.50;;;;;;5051844;28;20250;-53
2021/01/19 00:04:25;;;;;;;;;;;18.00;58.60;;;;;;5049355;28;19925;-53
2021/01/19 00:06:52;;;;;;;;;;;18.00;58.60;;;;;;5051790;28;19932;-54
2021/01/19 00:09:18;;;;;;;;;;;18.00;58.60;;;;;;5041464;28;19931;-54
2021/01/19 00:11:44;;;;;;;;;;;17.90;58.50;;;;;;5051687;28;19947;-54
2021/01/19 00:14:10;;;;;;;;;;;17.90;58.50;;;;;;5049530;28;20323;-56
2021/01/19 00:16:36;;;;;;;;;;;17.90;58.60;;;;;;5052986;28;19924;-54
2021/01/19 00:19:03;;;;;;;;;;;17.90;58.60;;;;;;5051291;28;19928;-54
2021/01/19 00:21:29;;;;;;;;;;;17.90;58.50;;;;;;5052557;28;19947;-55
2021/01/19 00:23:55;;;;;;;;;;;17.90;58.50;;;;;;5052432;28;19925;-54
2021/01/19 00:26:21;;;;;;;;;;;17.90;58.40;;;;;;5052858;28;19934;-54
2021/01/19 00:28:47;;;;;;;;;;;17.90;58.50;;;;;;5050217;28;20015;-55
2021/01/19 00:31:14;;;;;;;;;;;17.80;58.50;;;;;;5053311;28;20373;-54
2021/01/19 00:33:40;;;;;;;;;;;17.80;58.60;;;;;;5049530;28;19936;-54
2021/01/19 00:36:07;;;;;;;;;;;17.80;58.60;;;;;;5051566;28;19939;-55
2021/01/19 00:38:33;;;;;;;;;;;17.80;58.50;;;;;;5055875;28;19932;-55
2021/01/19 00:40:59;;;;;;;;;;;17.80;58.50;;;;;;5044446;28;19970;-54
2021/01/19 00:43:26;;;;;;;;;;;17.70;58.40;;;;;;5056159;28;19925;-54
2021/01/19 00:45:52;;;;;;;;;;;17.80;58.40;;;;;;5052393;28;20034;-54
2021/01/19 00:48:19;;;;;;;;;;;17.80;58.60;;;;;;5057479;28;19936;-55
2021/01/19 00:50:45;;;;;;;;;;;17.70;58.50;;;;;;5053247;28;20004;-55
2021/01/19 00:53:11;;;;;;;;;;;17.70;58.60;;;;;;5056567;28;19924;-55
2021/01/19 00:55:38;;;;;;;;;;;17.70;58.50;;;;;;5050801;28;19924;-55
2021/01/19 00:58:04;;;;;;;;;;;17.70;58.60;;;;;;5056258;28;19932;-54
2021/01/19 01:00:30;;;;;;;;;;;17.70;58.60;;;;;;5052711;28;19925;-54
2021/01/19 01:02:56;;;;;;;;;;;17.70;58.60;;;;;;5052708;28;20280;-55
2021/01/19 01:08:44;;;;;;;;;;;17.70;58.70;;;;;;5049578;28;19932;-54
2021/01/19 01:11:10;;;;;;;;;;;17.70;58.60;;;;;;5049846;28;19924;-54
2021/01/19 01:13:36;;;;;;;;;;;17.60;58.50;;;;;;5055931;28;20296;-55
2021/01/19 01:16:05;;;;;;;;;;;17.60;58.50;;;;;;5053228;28;19959;-55
2021/01/19 01:18:33;;;;;;;;;;;17.60;58.40;;;;;;5055908;28;19956;-54
2021/01/19 01:20:59;;;;;;;;;;;17.60;58.30;;;;;;5055031;28;19932;-55
2021/01/19 01:23:26;;;;;;;;;;;17.60;58.70;;;;;;5056571;28;19968;-54
2021/01/19 01:25:52;;;;;;;;;;;17.60;58.80;;;;;;5051344;28;20558;-55
2021/01/19 01:28:18;;;;;;;;;;;17.60;58.70;;;;;;5058190;28;19931;-53
2021/01/19 01:30:45;;;;;;;;;;;17.60;58.60;;;;;;5052886;28;19924;-55
2021/01/19 01:33:11;;;;;;;;;;;17.60;58.30;;;;;;5055758;28;19947;-55
2021/01/19 01:39:00;;;;;;;;;;;17.50;58.50;;;;;;5056101;28;20003;-54
2021/01/19 01:41:26;;;;;;;;;;;17.50;58.30;;;;;;5048846;28;19931;-54
2021/01/19 01:43:52;;;;;;;;;;;17.50;58.30;;;;;;5053200;28;19929;-55
2021/01/19 01:46:19;;;;;;;;;;;17.50;58.30;;;;;;5053904;28;19932;-54
2021/01/19 01:48:46;;;;;;;;;;;17.50;58.30;;;;;;5035190;28;19947;-55
2021/01/19 01:51:13;;;;;;;;;;;17.50;58.30;;;;;;5055319;28;19959;-55
2021/01/19 01:53:40;;;;;;;;;;;17.50;58.40;;;;;;5051438;28;19925;-55
2021/01/19 01:56:07;;;;;;;;;;;17.40;58.30;;;;;;5055147;28;20268;-53
2021/01/19 01:58:34;;;;;;;;;;;17.40;58.40;;;;;;5055693;28;19924;-54
2021/01/19 02:01:00;;;;;;;;;;;17.40;58.20;;;;;;5055958;28;20292;-53
2021/01/19 02:03:27;;;;;;;;;;;17.40;58.30;;;;;;5057019;28;19975;-53
2021/01/19 02:09:19;;;;;;;;;;;17.40;58.20;;;;;;5048268;28;19913;-53
2021/01/19 02:12:03;;;;;;;;;;;17.40;58.10;;;;;;5058112;28;20375;-53
2021/01/19 02:14:36;;;;;;;;;;;17.40;58.20;;;;;;5051115;28;20298;-55
2021/01/19 02:17:07;;;;;;;;;;;17.40;58.20;;;;;;5055983;28;19959;-53
2021/01/19 02:19:52;;;;;;;;;;;17.30;57.80;;;;;;5050410;28;19932;-54
2021/01/19 02:22:27;;;;;;;;;;;17.30;58.00;;;;;;5053074;28;20272;-53
2021/01/19 02:28:33;;;;;;;;;;;17.30;58.00;;;;;;5052625;28;20353;-53
2021/01/19 02:31:22;;;;;;;;;;;17.30;57.80;;;;;;5052045;28;19978;-54
2021/01/19 02:34:06;;;;;;;;;;;17.30;57.80;;;;;;5040960;28;19925;-55
2021/01/19 02:36:41;;;;;;;;;;;17.30;57.80;;;;;;5051356;28;19928;-53
2021/01/19 02:39:09;;;;;;;;;;;17.20;57.70;;;;;;5046888;28;19925;-55
2021/01/19 02:41:39;;;;;;;;;;;17.20;57.70;;;;;;5056556;28;19925;-55
2021/01/19 02:44:22;;;;;;;;;;;17.20;57.60;;;;;;5050436;28;19940;-54
2021/01/19 02:46:52;;;;;;;;;;;17.20;57.70;;;;;;5051159;28;19925;-55
2021/01/19 02:49:19;;;;;;;;;;;17.20;57.50;;;;;;5052585;28;19925;-53
2021/01/19 02:51:47;;;;;;;;;;;17.20;58.20;;;;;;5054656;28;19932;-54
2021/01/19 02:54:13;;;;;;;;;;;17.20;57.50;;;;;;5052747;28;19932;-53
2021/01/19 02:56:50;;;;;;;;;;;17.20;57.40;;;;;;5053716;28;19991;-54
2021/01/19 02:59:25;;;;;;;;;;;17.20;57.30;;;;;;5046685;28;19924;-53
2021/01/19 03:02:05;;;;;;;;;;;17.10;57.20;;;;;;5054096;28;19924;-53
2021/01/19 03:07:54;;;;;;;;;;;17.10;57.10;;;;;;5053718;28;20361;-53
2021/01/19 03:10:20;;;;;;;;;;;17.10;57.00;;;;;;5051705;28;19978;-53
2021/01/19 03:12:46;;;;;;;;;;;17.10;57.00;;;;;;5054046;28;19935;-53
2021/01/19 03:18:16;;;;;;;;;;;17.10;57.00;;;;;;5041083;28;20300;-53
2021/01/19 03:20:42;;;;;;;;;;;17.10;57.20;;;;;;5052577;28;19929;-53
2021/01/19 03:23:09;;;;;;;;;;;17.10;57.10;;;;;;5053432;28;19925;-54
2021/01/19 03:28:57;;;;;;;;;;;17.10;57.00;;;;;;5049497;28;19917;-55
2021/01/19 03:31:23;;;;;;;;;;;17.10;57.00;;;;;;5051675;28;19925;-53
2021/01/19 03:33:49;;;;;;;;;;;17.10;56.90;;;;;;5053620;28;19925;-53
2021/01/19 03:36:16;;;;;;;;;;;17.00;57.00;;;;;;5048798;28;20422;-53
2021/01/19 03:38:42;;;;;;;;;;;17.10;57.10;;;;;;5052485;28;19949;-53
2021/01/19 03:41:08;;;;;;;;;;;17.00;56.70;;;;;;5050883;28;19933;-54
2021/01/19 03:43:35;;;;;;;;;;;17.00;56.70;;;;;;5048401;28;19932;-53
2021/01/19 03:49:48;;;;;;;;;;;17.00;56.90;;;;;;5050725;28;20360;-53
2021/01/19 03:52:14;;;;;;;;;;;17.00;56.90;;;;;;5051993;28;19924;-54
2021/01/19 03:54:41;;;;;;;;;;;17.00;56.80;;;;;;5053388;28;19925;-53
2021/01/19 03:57:07;;;;;;;;;;;16.90;56.70;;;;;;5051376;28;19925;-55
2021/01/19 03:59:33;;;;;;;;;;;16.90;56.70;;;;;;5052772;28;19925;-55
2021/01/19 04:01:59;;;;;;;;;;;17.00;56.70;;;;;;5051537;28;19925;-54
2021/01/19 04:04:41;;;;;;;;;;;17.00;56.70;;;;;;5051989;28;19925;-54
2021/01/19 04:07:07;;;;;;;;;;;16.90;56.60;;;;;;5049588;28;19933;-55
2021/01/19 04:09:33;;;;;;;;;;;16.90;56.50;;;;;;5052111;28;19931;-55
2021/01/19 04:11:59;;;;;;;;;;;16.90;56.60;;;;;;5050152;28;19925;-54
2021/01/19 04:14:25;;;;;;;;;;;17.00;56.70;;;;;;5050307;28;19931;-54
2021/01/19 04:16:52;;;;;;;;;;;16.90;56.60;;;;;;5055918;28;20381;-55
2021/01/19 04:19:18;;;;;;;;;;;16.90;56.60;;;;;;5051176;28;19925;-55
2021/01/19 04:21:44;;;;;;;;;;;16.90;56.60;;;;;;5056242;28;19938;-55
2021/01/19 04:24:10;;;;;;;;;;;16.90;56.60;;;;;;5050353;28;19925;-55
2021/01/19 04:26:37;;;;;;;;;;;16.90;56.50;;;;;;5055751;28;19925;-55
2021/01/19 04:29:03;;;;;;;;;;;16.90;56.60;;;;;;5052635;28;20346;-55
2021/01/19 04:31:29;;;;;;;;;;;16.80;56.50;;;;;;5057257;28;19931;-55
2021/01/19 04:33:55;;;;;;;;;;;16.90;56.70;;;;;;5048647;28;19984;-55
2021/01/19 04:36:21;;;;;;;;;;;16.80;56.50;;;;;;5057272;28;19935;-55
2021/01/19 04:38:48;;;;;;;;;;;16.80;56.50;;;;;;5054628;28;19960;-55
2021/01/19 04:41:14;;;;;;;;;;;16.80;56.60;;;;;;5056806;28;20288;-54
2021/01/19 04:43:41;;;;;;;;;;;16.80;56.60;;;;;;5046545;28;20379;-55
2021/01/19 04:46:08;;;;;;;;;;;16.80;56.50;;;;;;5052658;28;20551;-55
2021/01/19 04:48:35;;;;;;;;;;;16.80;56.60;;;;;;5050419;28;20300;-53
2021/01/19 04:51:04;;;;;;;;;;;16.80;56.50;;;;;;5055944;28;19929;-55
2021/01/19 04:53:32;;;;;;;;;;;16.80;56.50;;;;;;5052553;28;20284;-53
2021/01/19 04:56:03;;;;;;;;;;;16.80;56.40;;;;;;5052192;28;20138;-55
2021/01/19 04:58:31;;;;;;;;;;;16.80;56.30;;;;;;5049940;28;19932;-55
2021/01/19 05:01:03;;;;;;;;;;;16.80;56.30;;;;;;5051254;28;19925;-55
2021/01/19 05:03:37;;;;;;;;;;;16.80;56.20;;;;;;5050273;28;19924;-55
2021/01/19 05:06:13;;;;;;;;;;;16.80;56.20;;;;;;5051049;28;19925;-55
2021/01/19 05:08:43;;;;;;;;;;;16.80;56.20;;;;;;5052738;28;19931;-55
2021/01/19 05:11:21;;;;;;;;;;;16.80;56.20;;;;;;5046120;28;19925;-55
2021/01/19 05:13:50;;;;;;;;;;;16.70;56.20;;;;;;5051508;28;20357;-55
2021/01/19 05:19:29;;;;;;;;;;;16.70;56.00;;;;;;5052691;28;19931;-54
2021/01/19 05:21:55;;;;;;;;;;;16.70;56.00;;;;;;5051129;28;20491;-53
2021/01/19 05:24:22;;;;;;;;;;;16.70;55.90;;;;;;5053929;28;19925;-53
2021/01/19 05:26:49;;;;;;;;;;;16.70;56.00;;;;;;5048925;28;19925;-54
2021/01/19 05:29:16;;;;;;;;;;;16.70;56.10;;;;;;5052421;28;19947;-53
2021/01/19 05:31:42;;;;;;;;;;;16.70;56.10;;;;;;5047105;28;19925;-56
2021/01/19 05:34:09;;;;;;;;;;;16.70;56.00;;;;;;5056513;28;20010;-54
2021/01/19 05:36:37;;;;;;;;;;;16.70;56.00;;;;;;5046265;28;19925;-55
2021/01/19 05:39:05;;;;;;;;;;;16.70;56.00;;;;;;5052730;28;20350;-54
2021/01/19 05:41:35;;;;;;;;;;;16.70;55.80;;;;;;5049664;28;19932;-53
2021/01/19 05:44:29;;;;;;;;;;;16.70;55.90;;;;;;5053688;28;19925;-53
2021/01/19 05:46:58;;;;;;;;;;;16.70;55.80;;;;;;5043935;28;19928;-53
2021/01/19 05:49:24;;;;;;;;;;;16.60;55.60;;;;;;5055305;28;19979;-54
2021/01/19 05:51:57;;;;;;;;;;;16.70;55.60;;;;;;5049222;28;19925;-53
2021/01/19 05:54:55;;;;;;;;;;;16.70;55.50;;;;;;5053132;28;19925;-53
2021/01/19 05:57:22;;;;;;;;;;;16.70;55.60;;;;;;5046455;28;20276;-54
2021/01/19 05:59:55;;;;;;;;;;;16.60;55.50;;;;;;5049744;28;19925;-55
2021/01/19 06:02:22;;;;;;;;;;;16.70;55.50;;;;;;5049120;28;19925;-53
2021/01/19 06:05:22;;;;;;;;;;;16.60;55.50;;;;;;5052898;28;19955;-54
2021/01/19 06:07:51;;;;;;;;;;;16.70;55.50;;;;;;5020046;28;19960;-52
2021/01/19 06:10:22;;;;;;;;;;;16.70;55.60;;;;;;5054372;28;19925;-53
2021/01/19 06:12:49;;;;;;;;;;;16.70;55.60;;;;;;5045498;28;19932;-53
2021/01/19 06:15:35;;;;;;;;;;;16.60;55.60;;;;;;5052710;28;19931;-53
2021/01/19 06:18:05;;;;;;;;;;;16.60;55.60;;;;;;5048750;28;19932;-53
2021/01/19 06:20:41;;;;;;;;;;;16.70;55.60;;;;;;5052406;28;20312;-54
2021/01/19 06:23:09;;;;;;;;;;;16.70;55.50;;;;;;5047060;28;20403;-54
2021/01/19 06:28:58;;;;;;;;;;;16.70;55.90;;;;;;5049831;28;19920;-54
2021/01/19 06:31:25;;;;;;;;;;;16.70;56.10;;;;;;5045781;28;20389;-55
2021/01/19 06:33:51;;;;;;;;;;;16.70;56.00;;;;;;5049256;28;19925;-54
2021/01/19 06:36:18;;;;;;;;;;;16.70;56.00;;;;;;5049596;28;19968;-54
2021/01/19 06:38:48;;;;;;;;;;;16.60;55.90;;;;;;5031789;28;19929;-54
2021/01/19 06:41:16;;;;;;;;;;;16.70;55.90;;;;;;5047188;28;19924;-54
2021/01/19 06:43:44;;;;;;;;;;;16.60;56.00;;;;;;5044984;28;19943;-54
2021/01/19 06:49:33;;;;;;;;;;;16.60;55.80;;;;;;5051357;28;19912;-55
2021/01/19 06:52:03;;;;;;;;;;;16.70;55.90;;;;;;5050404;28;19925;-54
2021/01/19 06:54:40;;;;;;;;;;;16.60;55.60;;;;;;5046325;28;19931;-54
2021/01/19 06:57:13;;;;;;;;;;;16.60;55.50;;;;;;5048724;28;20008;-54
2021/01/19 06:59:48;;;;;;;;;;;16.60;55.50;;;;;;5042350;28;19937;-54
2021/01/19 07:02:16;;;;;;;;;;;16.60;55.70;;;;;;5049085;28;19925;-55
2021/01/19 07:04:46;;;;;;;;;;;16.60;55.40;;;;;;5046881;28;19933;-54
2021/01/19 07:07:29;;;;;;;;;;;16.60;55.50;;;;;;5051252;28;19932;-54
2021/01/19 07:10:03;;;;;;;;;;;16.60;56.10;;;;;;5046740;28;19931;-54
2021/01/19 07:12:41;;;;;;;;;;;16.60;55.50;;;;;;5047690;28;19931;-54
2021/01/19 07:15:09;;;;;;;;;;;16.60;55.40;;;;;;5046768;28;19931;-54
2021/01/19 07:17:54;;;;;;;;;;;16.60;55.50;;;;;;5051712;28;20434;-54
2021/01/19 07:20:32;;;;;;;;;;;16.60;56.00;;;;;;5045363;28;19929;-56
2021/01/19 07:23:36;;;;;;;;;;;16.90;56.70;;;;;;4994987;28;19932;-57
2021/01/19 07:26:02;;;;;;;;;;;17.60;56.00;;;;;;5047149;28;19929;-57
2021/01/19 07:28:29;;;;;;;;;;;18.40;54.70;;;;;;5042380;28;19929;-57
2021/01/19 07:31:05;;;;;;;;;;;19.00;53.30;;;;;;5045619;28;19915;-56
2021/01/19 07:33:32;;;;;;;;;;;19.40;52.10;;;;;;5041347;28;20329;-58
2021/01/19 07:36:03;;;;;;;;;;;19.70;51.20;;;;;;5053304;28;19925;-61
2021/01/19 07:38:29;;;;;;;;;;;19.90;50.30;;;;;;5043272;28;19976;-62
2021/01/19 07:40:57;;;;;;;;;;;19.80;50.10;;;;;;5052064;28;19925;-61
2021/01/19 07:43:33;;;;;;;;;;;19.90;50.30;;;;;;5042914;28;20018;-60
2021/01/19 07:46:20;;;;;;;;;;;20.30;49.70;;;;;;5049595;28;19995;-58
2021/01/19 07:48:47;;;;;;;;;;;20.80;49.00;;;;;;5043155;28;19939;-61
2021/01/19 07:51:17;;;;;;;;;;;21.10;48.80;;;;;;5047481;28;20019;-62
2021/01/19 07:53:53;;;;;;;;;;;21.40;47.60;;;;;;5043356;28;19979;-60
2021/01/19 07:56:27;;;;;;;;;;;21.60;47.70;;;;;;5047811;28;19909;-63
2021/01/19 07:58:54;;;;;;;;;;;21.50;48.10;;;;;;5043157;28;20576;-61
2021/01/19 08:01:24;;;;;;;;;;;21.50;48.10;;;;;;5043641;28;19925;-59
2021/01/19 08:03:51;;;;;;;;;;;21.70;47.70;;;;;;5046475;28;19935;-57
2021/01/19 08:06:38;;;;;;;;;;;21.70;47.50;;;;;;5039905;28;19933;-57
2021/01/19 08:09:08;;;;;;;;;;;21.90;47.20;;;;;;5044709;28;20015;-56
2021/01/19 08:11:35;;;;;;;;;;;22.10;46.80;;;;;;5046687;28;19929;-64
2021/01/19 08:14:08;;;;;;;;;;;22.20;46.60;;;;;;5041646;28;19929;-63
2021/01/19 08:16:38;;;;;;;;;;;22.30;46.20;;;;;;5035237;28;20009;-62
2021/01/19 08:19:05;;;;;;;;;;;22.50;45.90;;;;;;5043593;28;19937;-65
2021/01/19 08:21:46;;;;;;;;;;;22.60;45.70;;;;;;5040849;28;19933;-65
2021/01/19 08:24:19;;;;;;;;;;;22.70;45.60;;;;;;5039531;28;19939;-65
2021/01/19 08:26:45;;;;;;;;;;;22.90;45.40;;;;;;5040483;28;20541;-64
2021/01/19 08:29:27;;;;;;;;;;;23.10;45.10;;;;;;5041027;28;19929;-65
2021/01/19 08:31:54;;;;;;;;;;;23.20;44.80;;;;;;5044422;28;19932;-65
2021/01/19 08:34:21;;;;;;;;;;;23.30;44.60;;;;;;5033829;28;19928;-64
2021/01/19 08:36:48;;;;;;;;;;;23.50;44.30;;;;;;5045238;28;19939;-64
2021/01/19 08:39:15;;;;;;;;;;;23.60;44.20;;;;;;5034819;28;19933;-65
2021/01/19 08:41:43;;;;;;;;;;;23.70;44.00;;;;;;5039631;28;20344;-65
2021/01/19 08:44:10;;;;;;;;;;;23.80;43.90;;;;;;5038481;28;19933;-64
2021/01/19 08:46:38;;;;;;;;;;;23.90;43.60;;;;;;5044270;28;19932;-59
2021/01/19 08:49:09;;;;;;;;;;;24.00;43.40;;;;;;5041821;28;19925;-58
2021/01/19 08:51:36;;;;;;;;;;;24.10;43.40;;;;;;5046156;28;19928;-59
2021/01/19 08:54:07;;;;;;;;;;;24.20;43.20;;;;;;5040886;28;19931;-58
2021/01/19 08:56:37;;;;;;;;;;;24.30;43.10;;;;;;5043545;28;20587;-59
2021/01/19 08:59:03;;;;;;;;;;;24.30;42.90;;;;;;5042559;28;20648;-59
2021/01/19 09:01:30;;;;;;;;;;;24.40;42.60;;;;;;5048298;28;20027;-58
2021/01/19 09:03:58;;;;;;;;;;;24.40;42.70;;;;;;5045563;28;19925;-59
2021/01/19 09:06:31;;;;;;;;;;;24.40;42.60;;;;;;5052751;28;19931;-58
2021/01/19 09:08:59;;;;;;;;;;;24.60;42.50;;;;;;5043552;28;19925;-57
2021/01/19 09:11:32;;;;;;;;;;;24.60;42.30;;;;;;5048197;28;19924;-54
2021/01/19 09:14:00;;;;;;;;;;;24.00;41.10;;;;;;5043562;28;20570;-54
2021/01/19 09:16:41;;;;;;;;;;;23.30;42.10;;;;;;5052046;28;19963;-54
2021/01/19 09:19:09;;;;;;;;;;;23.00;42.90;;;;;;5038984;28;19937;-56
2021/01/19 09:21:38;;;;;;;;;;;23.50;43.90;;;;;;5030306;28;20015;-55
2021/01/19 09:24:14;;;;;;;;;;;24.00;43.10;;;;;;5042451;28;20701;-57
2021/01/19 09:26:56;;;;;;;;;;;24.20;42.40;;;;;;5049733;28;19928;-57
2021/01/19 09:29:27;;;;;;;;;;;24.30;42.20;;;;;;5040258;28;19943;-57
2021/01/19 09:31:56;;;;;;;;;;;24.40;41.90;;;;;;5046380;28;19928;-59
2021/01/19 09:34:23;;;;;;;;;;;24.40;42.40;;;;;;5042415;28;19985;-59
2021/01/19 09:36:49;;;;;;;;;;;24.60;42.40;;;;;;5044360;28;19925;-59
2021/01/19 09:39:25;;;;;;;;;;;24.80;42.20;;;;;;5047259;28;19932;-59
2021/01/19 09:41:52;;;;;;;;;;;24.90;41.90;;;;;;5042739;28;19925;-56
2021/01/19 09:44:19;;;;;;;;;;;25.00;41.90;;;;;;5044104;28;19928;-58
2021/01/19 09:46:52;;;;;;;;;;;25.10;41.80;;;;;;5041306;28;19929;-56
2021/01/19 09:49:22;;;;;;;;;;;25.10;41.80;;;;;;5047428;28;19924;-57
2021/01/19 09:51:49;;;;;;;;;;;25.30;41.60;;;;;;5039773;28;20014;-56
2021/01/19 09:54:21;;;;;;;;;;;25.40;41.40;;;;;;5041395;28;20397;-57
2021/01/19 09:56:56;;;;;;;;;;;25.40;41.40;;;;;;5043227;28;19929;-58
2021/01/19 09:59:24;;;;;;;;;;;25.40;41.20;;;;;;5050273;28;20384;-60
2021/01/19 10:01:51;;;;;;;;;;;25.50;41.40;;;;;;5038179;28;20389;-59
2021/01/19 10:04:22;;;;;;;;;;;25.50;41.10;;;;;;5046424;28;20039;-61
2021/01/19 10:07:03;;;;;;;;;;;25.50;41.20;;;;;;5039359;28;19925;-58
2021/01/19 10:09:30;;;;;;;;;;;25.70;41.10;;;;;;5048851;28;19929;-57
2021/01/19 10:11:59;;;;;;;;;;;25.70;41.00;;;;;;5041632;28;19925;-57
2021/01/19 10:14:35;;;;;;;;;;;25.80;41.20;;;;;;5045952;28;19951;-58
2021/01/19 10:17:27;;;;;;;;;;;25.80;41.10;;;;;;5039909;28;19955;-57
2021/01/19 10:20:03;;;;;;;;;;;25.90;40.70;;;;;;5043408;28;19936;-60
2021/01/19 10:22:32;;;;;;;;;;;25.90;40.50;;;;;;5034383;28;20009;-57
2021/01/19 10:24:58;;;;;;;;;;;26.00;40.40;;;;;;5038680;28;19925;-56
2021/01/19 10:27:24;;;;;;;;;;;26.10;40.40;;;;;;5037955;28;19932;-58
2021/01/19 10:29:51;;;;;;;;;;;26.20;40.30;;;;;;5045040;28;19933;-58
2021/01/19 10:32:17;;;;;;;;;;;26.20;40.70;;;;;;5043007;28;20400;-58
2021/01/19 10:34:44;;;;;;;;;;;26.10;40.80;;;;;;5045224;28;20333;-60
2021/01/19 10:37:11;;;;;;;;;;;26.20;40.80;;;;;;5048097;28;19933;-58
2021/01/19 10:39:55;;;;;;;;;;;26.20;40.80;;;;;;5054723;28;19948;-58
2021/01/19 10:42:26;;;;;;;;;;;26.20;40.80;;;;;;5049338;28;19925;-59
2021/01/19 10:44:52;;;;;;;;;;;26.30;40.70;;;;;;5048470;28;19925;-58
2021/01/19 10:47:19;;;;;;;;;;;26.40;40.70;;;;;;5049510;28;20411;-57
2021/01/19 10:49:45;;;;;;;;;;;26.30;40.20;;;;;;5041524;28;19925;-58
2021/01/19 10:52:12;;;;;;;;;;;26.50;40.40;;;;;;5046045;28;19944;-59
2021/01/19 10:54:58;;;;;;;;;;;26.50;40.10;;;;;;5026914;28;19932;-59
2021/01/19 10:57:24;;;;;;;;;;;26.40;40.20;;;;;;5044494;28;19929;-58
2021/01/19 10:59:50;;;;;;;;;;;26.60;40.00;;;;;;5045002;28;19932;-58
2021/01/19 11:02:16;;;;;;;;;;;26.70;39.80;;;;;;5048581;28;19939;-59
2021/01/19 11:04:43;;;;;;;;;;;26.90;40.00;;;;;;5045519;28;19925;-59
2021/01/19 11:07:10;;;;;;;;;;;26.90;39.70;;;;;;5046973;28;19933;-58
2021/01/19 11:09:36;;;;;;;;;;;26.90;39.50;;;;;;5040454;28;19933;-57
2021/01/19 11:12:02;;;;;;;;;;;27.10;39.30;;;;;;5039914;28;19925;-54
2021/01/19 11:14:43;;;;;;;;;;;26.10;36.40;;;;;;5054449;28;19925;-56
2021/01/19 11:17:10;;;;;;;;;;;24.90;39.30;;;;;;5042114;28;19947;-57
2021/01/19 11:19:36;;;;;;;;;;;24.10;41.20;;;;;;5043083;28;20562;-57
2021/01/19 11:22:02;;;;;;;;;;;23.50;42.40;;;;;;5041367;28;19937;-59
2021/01/19 11:24:28;;;;;;;;;;;23.10;43.00;;;;;;5040607;28;20557;-58
2021/01/19 11:26:55;;;;;;;;;;;22.90;43.60;;;;;;5038719;28;20030;-58
2021/01/19 11:29:28;;;;;;;;;;;22.80;44.00;;;;;;5045628;28;19933;-57
2021/01/19 11:31:54;;;;;;;;;;;22.60;44.30;;;;;;5040071;28;19924;-57
2021/01/19 11:34:21;;;;;;;;;;;22.50;44.40;;;;;;5043862;28;20323;-57
2021/01/19 11:36:47;;;;;;;;;;;22.40;44.60;;;;;;5038789;28;20622;-57
2021/01/19 11:39:14;;;;;;;;;;;22.30;44.80;;;;;;5037427;28;20040;-58
2021/01/19 11:41:40;;;;;;;;;;;22.20;45.10;;;;;;5035551;28;20350;-56
2021/01/19 11:44:06;;;;;;;;;;;22.10;45.40;;;;;;5044003;28;19932;-56
2021/01/19 11:46:33;;;;;;;;;;;22.00;45.60;;;;;;5039827;28;19925;-56
2021/01/19 11:49:00;;;;;;;;;;;21.90;45.90;;;;;;5041565;28;20476;-57
2021/01/19 11:51:28;;;;;;;;;;;21.80;46.00;;;;;;5040083;28;20035;-59
2021/01/19 11:53:55;;;;;;;;;;;22.10;46.50;;;;;;5041204;28;19941;-61
2021/01/19 11:56:31;;;;;;;;;;;23.30;45.00;;;;;;5048128;28;19925;-62
2021/01/19 11:58:57;;;;;;;;;;;24.00;43.60;;;;;;5036088;28;19931;-63
2021/01/19 12:01:23;;;;;;;;;;;24.50;42.50;;;;;;5041113;28;19929;-65
2021/01/19 12:03:50;;;;;;;;;;;24.90;42.20;;;;;;5034904;28;20281;-63
2021/01/19 12:06:17;;;;;;;;;;;25.10;41.90;;;;;;5024974;28;19929;-64
2021/01/19 12:08:46;;;;;;;;;;;25.20;41.60;;;;;;5036006;28;20301;-63
2021/01/19 12:11:13;;;;;;;;;;;25.40;41.50;;;;;;5037633;28;19933;-63
2021/01/19 12:13:39;;;;;;;;;;;25.50;41.40;;;;;;5036653;28;20006;-63
2021/01/19 12:16:05;;;;;;;;;;;25.60;41.30;;;;;;5045538;28;19933;-62
2021/01/19 12:18:32;;;;;;;;;;;25.70;41.50;;;;;;5034050;28;19933;-63
2021/01/19 12:20:59;;;;;;;;;;;25.70;41.30;;;;;;5043093;28;20016;-65
2021/01/19 12:23:26;;;;;;;;;;;25.90;41.20;;;;;;5038192;28;20554;-67
2021/01/19 12:25:58;;;;;;;;;;;26.00;41.10;;;;;;5042397;28;19925;-63
2021/01/19 12:28:25;;;;;;;;;;;26.10;41.10;;;;;;5037109;28;19925;-61
2021/01/19 12:30:53;;;;;;;;;;;26.20;41.00;;;;;;5041007;28;19925;-62
2021/01/19 12:33:19;;;;;;;;;;;26.30;40.80;;;;;;5040889;28;19925;-61
2021/01/19 12:35:46;;;;;;;;;;;26.40;40.60;;;;;;5037979;28;20720;-63
2021/01/19 12:38:12;;;;;;;;;;;26.50;40.40;;;;;;5042456;28;19963;-62
2021/01/19 12:40:39;;;;;;;;;;;26.60;40.30;;;;;;5041711;28;20290;-63
2021/01/19 12:43:05;;;;;;;;;;;26.70;40.10;;;;;;5047481;28;19995;-64
2021/01/19 12:45:31;;;;;;;;;;;26.80;40.20;;;;;;5039373;28;19929;-64
2021/01/19 12:47:57;;;;;;;;;;;26.80;40.20;;;;;;5042069;28;19933;-61
2021/01/19 12:50:24;;;;;;;;;;;26.90;40.30;;;;;;5041487;28;19964;-61
2021/01/19 12:52:50;;;;;;;;;;;27.00;40.00;;;;;;5048852;28;20321;-62
2021/01/19 12:55:16;;;;;;;;;;;27.10;40.00;;;;;;5041658;28;20385;-63
2021/01/19 12:57:42;;;;;;;;;;;27.00;40.40;;;;;;5041164;28;19932;-63
2021/01/19 13:00:09;;;;;;;;;;;27.00;40.40;;;;;;5039388;28;19925;-62
2021/01/19 13:02:35;;;;;;;;;;;27.00;40.30;;;;;;5045594;28;19939;-63
2021/01/19 13:05:04;;;;;;;;;;;27.10;40.40;;;;;;5042059;28;19925;-64
2021/01/19 13:07:30;;;;;;;;;;;27.10;40.40;;;;;;5047454;28;19987;-59
2021/01/19 13:09:57;;;;;;;;;;;27.20;40.40;;;;;;5047519;28;19959;-61
2021/01/19 13:12:24;;;;;;;;;;;27.30;40.30;;;;;;5052141;28;20373;-60
2021/01/19 13:15:06;;;;;;;;;;;27.30;40.30;;;;;;5051207;28;19925;-59
2021/01/19 13:17:33;;;;;;;;;;;27.30;40.10;;;;;;5045812;28;19925;-58
2021/01/19 13:20:00;;;;;;;;;;;27.00;38.10;;;;;;5047442;28;19929;-59
2021/01/19 13:22:27;;;;;;;;;;;25.60;38.70;;;;;;5042696;28;19932;-58
2021/01/19 13:24:58;;;;;;;;;;;24.60;40.70;;;;;;5048331;28;19962;-59
2021/01/19 13:27:24;;;;;;;;;;;24.10;42.10;;;;;;5042252;28;19929;-58
2021/01/19 13:29:51;;;;;;;;;;;23.80;43.00;;;;;;5048485;28;19925;-59
2021/01/19 13:32:17;;;;;;;;;;;23.90;45.40;;;;;;5043419;28;20569;-57
2021/01/19 13:34:44;;;;;;;;;;;24.00;45.20;;;;;;5050036;28;19971;-59
2021/01/19 13:37:10;;;;;;;;;;;24.30;45.60;;;;;;5045124;28;19924;-57
2021/01/19 13:39:36;;;;;;;;;;;24.30;45.60;;;;;;5050382;28;19924;-57
2021/01/19 13:42:03;;;;;;;;;;;24.30;46.50;;;;;;5038192;28;19925;-59
2021/01/19 13:44:29;;;;;;;;;;;24.30;46.10;;;;;;5049623;28;20320;-59
2021/01/19 13:46:55;;;;;;;;;;;24.30;45.80;;;;;;5042164;28;19925;-59
2021/01/19 13:49:22;;;;;;;;;;;24.30;45.70;;;;;;5048786;28;19971;-58
2021/01/19 13:51:48;;;;;;;;;;;24.30;45.50;;;;;;5043294;28;19925;-58
2021/01/19 13:54:14;;;;;;;;;;;24.30;45.70;;;;;;5045757;28;20465;-57
2021/01/19 13:56:40;;;;;;;;;;;24.30;46.20;;;;;;5041699;28;19925;-56
2021/01/19 13:59:07;;;;;;;;;;;24.30;45.90;;;;;;5047381;28;20033;-57
2021/01/19 14:01:36;;;;;;;;;;;24.30;45.90;;;;;;5044786;28;20392;-58
2021/01/19 14:04:03;;;;;;;;;;;24.20;45.80;;;;;;5041943;28;19979;-57
2021/01/19 14:06:29;;;;;;;;;;;24.20;46.20;;;;;;5046761;28;19925;-59
2021/01/19 14:08:56;;;;;;;;;;;24.20;46.00;;;;;;5043059;28;19947;-57
2021/01/19 14:11:28;;;;;;;;;;;24.20;46.30;;;;;;5046084;28;19974;-61
2021/01/19 14:13:54;;;;;;;;;;;24.20;45.90;;;;;;5035826;28;19951;-60
2021/01/19 14:16:21;;;;;;;;;;;24.10;45.90;;;;;;5042250;28;19933;-56
2021/01/19 14:18:48;;;;;;;;;;;24.10;46.10;;;;;;5025368;28;19933;-54
2021/01/19 14:21:15;;;;;;;;;;;24.10;45.80;;;;;;5043110;28;21129;-55
2021/01/19 14:23:41;;;;;;;;;;;24.00;45.60;;;;;;5036574;28;19924;-57
2021/01/19 14:26:07;;;;;;;;;;;24.00;45.90;;;;;;5043568;28;19939;-56
2021/01/19 14:28:33;;;;;;;;;;;24.00;45.80;;;;;;5035620;28;19933;-56
2021/01/19 14:31:00;;;;;;;;;;;23.90;46.10;;;;;;5046659;28;19933;-62
2021/01/19 14:33:27;;;;;;;;;;;23.90;46.50;;;;;;5039570;28;19983;-62
2021/01/19 14:35:53;;;;;;;;;;;23.90;46.10;;;;;;5046312;28;19929;-59
2021/01/19 14:38:20;;;;;;;;;;;23.90;46.80;;;;;;5044351;28;19968;-59
2021/01/19 14:40:46;;;;;;;;;;;23.80;46.00;;;;;;5047317;28;20289;-60
2021/01/19 14:43:12;;;;;;;;;;;23.80;46.80;;;;;;5042801;28;19933;-61
2021/01/19 14:45:44;;;;;;;;;;;23.80;47.20;;;;;;5041943;28;19925;-60
2021/01/19 14:48:10;;;;;;;;;;;23.80;46.90;;;;;;5045860;28;19925;-58
2021/01/19 14:50:36;;;;;;;;;;;23.80;47.20;;;;;;5041674;28;20419;-54
2021/01/19 14:53:03;;;;;;;;;;;23.80;47.00;;;;;;5041972;28;19943;-55
2021/01/19 14:55:29;;;;;;;;;;;23.80;47.10;;;;;;5037093;28;19925;-56
2021/01/19 14:57:57;;;;;;;;;;;23.80;46.40;;;;;;5043542;28;19932;-57
2021/01/19 15:00:23;;;;;;;;;;;23.80;46.90;;;;;;5042972;28;19928;-61
2021/01/19 15:02:53;;;;;;;;;;;23.70;46.20;;;;;;5043085;28;19932;-62
2021/01/19 15:05:19;;;;;;;;;;;23.70;46.50;;;;;;5039797;28;19932;-57